Main page
METAR-TAF:

METAR-TAF

Airports :

Brooks Field

Marshall, Michigan, United States

latitude: 42-15-04N, longitude: 084-57-20W, elevation: 287 m

Current weather observation

The report was made 25 minutes ago, at 17:15 UTC
Wind 3 kt from the West
Temperature 32°C
Humidity 56%
Pressure 1026 hPa
Visibility: 16.1 km
Scattered clouds at a height of 6500 ft
Scattered clouds at a height of 7500 ft
Scattered clouds at a height of 9000 ft

METAR: KRMY 201715Z AUTO 27003KT 10SM SCT065 SCT075 SCT090 32/22 A3029 RMK AO2 T03180218

Time: 13:40 (17:40 UTC)


TAF: missing

Weather observations and forecasts of more than 4000 airports (METAR and TAF reports).

The available stations are represented by yellow and red dots on the map.

Hover mouse over dot to see the name of the station.

Then click to see weather observations and forecasts.

To change the map : click on the green buttons with a black cross to zoom in, on the green button with a dash to zoom out, or on the green arrows for adjacent maps.


METAR-TAF: